Edisongracht — PDUJ — position and weather

sailwx.info

Track history (hours):
 
Tides and Currents Weather Stations Pressure Air Temp Water Temp Dewpoint Dewpoint Depression Visibility Wind Speed Wind Dir Waves Ship Positions

Edisongracht

Last reported at 2015-May-28 16:31 UTC. Time now 2015-May-30 14:35 UTC.
Position N 50°19' W 001°15'.

Length 136 m; beam 19 m; draft 9 m.

Type: Cargo ship. MMSI: 244262000.

Date/timePositionNaut miles runAvg speedWind from/ knotsBaromVisibWave heightAir tempDewpointWater temp
2015-May-28 16:31N 50°19' W 001°15'2511.6
2015-May-28 14:24N 50°25' W 000°38'2613.2
2015-May-28 12:28N 50°32' E 000°01'1313.9
2015-May-28 11:33N 50°35' E 000°21'1413.8
2015-May-28 10:34N 50°41' E 000°40'1313.1
2015-May-28 09:34N 50°48' E 000°57'1212.1
2015-May-28 08:33N 50°56' E 001°12'1211.6
2015-May-28 07:34N 51°04' E 001°26'1111.3
2015-May-28 06:34N 51°11' E 001°40'1212.4
2015-May-28 05:33N 51°20' E 001°53'1110.8
2015-May-28 04:33N 51°22' E 002°10'1512.8
2015-May-28 03:25N 51°23' E 002°34'1011.6
2015-May-28 02:34N 51°22' E 002°49'1312.6
2015-May-28 01:33N 51°24' E 003°09'1414.2
2015-May-28 00:33N 51°25' E 003°32'1111.3
2015-May-27 23:34N 51°21' E 003°49'10 9.5
2015-May-27 22:33N 51°22' E 004°04'10 9.8
2015-May-27 21:33N 51°18' E 004°17'2 2.0
2015-May-27 20:31N 51°16' E 004°17'2 1.4
2015-May-27 19:20N 51°15' E 004°14'0 0.0
2015-May-27 18:32N 51°15' E 004°14'0 0.0
2015-May-27 17:23N 51°15' E 004°14'0 0.0
2015-May-27 16:32N 51°15' E 004°14'0 0.0
2015-May-27 15:32N 51°15' E 004°14'0 0.0
2015-May-27 14:32N 51°15' E 004°14'0 0.0
2015-May-27 13:26N 51°15' E 004°14'0 0.0
2015-May-27 12:32N 51°15' E 004°14'0 0.0
2015-May-27 11:32N 51°15' E 004°14'0 0.0
2015-May-27 10:32N 51°15' E 004°14'0 0.0
2015-May-27 09:32N 51°15' E 004°14'0 0.0
2015-May-27 08:29N 51°15' E 004°14'0 0.0
2015-May-27 07:32N 51°15' E 004°14'0 0.0
2015-May-27 06:32N 51°15' E 004°14'0 0.0
2015-May-27 05:32N 51°15' E 004°14'0 0.0
2015-May-27 04:32N 51°15' E 004°14'0 0.0
2015-May-27 03:32N 51°15' E 004°14'0 0.0
2015-May-27 02:32N 51°15' E 004°14'0 0.0
2015-May-27 01:32N 51°15' E 004°14'0 0.0
2015-May-27 00:32N 51°15' E 004°14'0 0.0
2015-May-26 23:26N 51°15' E 004°14'0 0.0
2015-May-26 22:32N 51°15' E 004°14'0 0.0
2015-May-26 21:29N 51°15' E 004°14'1 1.3
2015-May-26 20:33N 51°16' E 004°16'1 0.6
2015-May-26 19:33N 51°16' E 004°17'2 2.2
2015-May-26 18:33N 51°17' E 004°20'1 1.3
2015-May-26 17:33N 51°17' E 004°22'0 0.4
2015-May-26 16:31N 51°17' E 004°23'0 0.0
2015-May-26 15:33N 51°17' E 004°23'0 0.0
2015-May-26 14:33N 51°17' E 004°23'0 0.0
2015-May-26 13:30N 51°17' E 004°23'0 0.0
2015-May-26 12:33N 51°17' E 004°23'0 0.1
2015-May-26 11:33N 51°17' E 004°23'0 0.1
2015-May-26 10:33N 51°17' E 004°23'0 0.0
2015-May-26 09:33N 51°17' E 004°23'0 0.0
2015-May-26 08:30N 51°17' E 004°23'0 0.0
2015-May-26 07:33N 51°17' E 004°23'0 0.0
2015-May-26 06:33N 51°17' E 004°23'0 0.0
2015-May-26 05:33N 51°17' E 004°23'0 0.0
2015-May-26 04:33N 51°17' E 004°23'0 0.0
2015-May-26 03:33N 51°17' E 004°23'0 0.0
2015-May-26 02:33N 51°17' E 004°23'0 0.0
2015-May-26 01:33N 51°17' E 004°23'0 0.0
2015-May-26 00:33N 51°17' E 004°23'0 0.0
2015-May-25 23:33N 51°17' E 004°23'0 0.0
2015-May-25 22:33N 51°17' E 004°23'0 0.0
2015-May-25 21:33N 51°17' E 004°23'0 0.0
2015-May-25 20:33N 51°17' E 004°23'0 0.0
2015-May-25 19:33N 51°17' E 004°23'0 0.0
2015-May-25 18:33N 51°17' E 004°23'0 0.0
2015-May-25 17:33N 51°17' E 004°23'0 0.0
2015-May-25 16:33N 51°17' E 004°23'0 0.0
2015-May-25 15:33N 51°17' E 004°23'0 0.0
2015-May-25 14:32N 51°17' E 004°23'0 0.0
2015-May-25 13:32N 51°17' E 004°23'0 0.0
2015-May-25 12:32N 51°17' E 004°23'0 0.0
2015-May-25 11:32N 51°17' E 004°23'0 0.0
2015-May-25 10:32N 51°17' E 004°23'0 0.0
2015-May-25 09:32N 51°17' E 004°23'0 0.0
2015-May-25 08:32N 51°17' E 004°23'0 0.0
2015-May-25 07:32N 51°17' E 004°23'0 0.0
2015-May-25 06:32N 51°17' E 004°23'0 0.0
2015-May-25 05:32N 51°17' E 004°23'0 0.0
2015-May-25 04:32N 51°17' E 004°23'0 0.0
2015-May-25 03:32N 51°17' E 004°23'0 0.0
2015-May-25 02:32N 51°17' E 004°23'0 0.0
2015-May-25 01:32N 51°17' E 004°23'0 0.0
2015-May-25 00:32N 51°17' E 004°23'0 0.0
2015-May-24 23:32N 51°17' E 004°23'0 0.0
2015-May-24 22:32N 51°17' E 004°23'0 0.0
2015-May-24 21:32N 51°17' E 004°23'0 0.0
2015-May-24 20:32N 51°17' E 004°23'0 0.0
2015-May-24 19:32N 51°17' E 004°23'0 0.0
2015-May-24 18:32N 51°17' E 004°23'0 0.0
2015-May-24 17:32N 51°17' E 004°23'0 0.0
2015-May-24 16:32N 51°17' E 004°23'0 0.0
2015-May-24 15:32N 51°17' E 004°23'0 0.0
2015-May-24 14:31N 51°17' E 004°23'0 0.0
2015-May-24 13:31N 51°17' E 004°23'0 0.0
2015-May-24 12:31N 51°17' E 004°23'0 0.0
2015-May-24 11:31N 51°17' E 004°23'0 0.0
2015-May-24 10:31N 51°17' E 004°23'0 0.0
2015-May-24 09:31N 51°17' E 004°23'0 0.0
2015-May-24 08:31N 51°17' E 004°23'0 0.0
2015-May-24 07:31N 51°17' E 004°23'0 0.0
2015-May-24 06:31N 51°17' E 004°23'0 0.0
2015-May-24 05:31N 51°17' E 004°23'0 0.0
2015-May-24 04:31N 51°17' E 004°23'0 0.0
2015-May-24 03:31N 51°17' E 004°23'0 0.0
2015-May-24 02:31N 51°17' E 004°23'0 0.0
2015-May-24 01:31N 51°17' E 004°23'0 0.0
2015-May-24 00:31N 51°17' E 004°23'0 0.0
2015-May-23 23:31N 51°17' E 004°23'0 0.0
2015-May-23 22:31N 51°17' E 004°23'0 0.0
2015-May-23 21:31N 51°17' E 004°23'0 0.0
2015-May-23 20:31N 51°17' E 004°23'0 0.0
2015-May-23 19:31N 51°17' E 004°23'4 4.4
2015-May-23 18:33N 51°20' E 004°18'1 0.9
2015-May-23 17:34N 51°21' E 004°17'4 4.0
2015-May-23 16:34N 51°23' E 004°13'8 7.6
2015-May-23 15:34N 51°26' E 004°01'1111.0
2015-May-23 14:33N 51°22' E 003°44'1211.5
2015-May-23 13:33N 51°25' E 003°27'1313.2
2015-May-23 12:33N 51°24' E 003°05'1211.5
2015-May-23 11:33N 51°22' E 002°47'7 7.0
2015-May-23 10:33N 51°25' E 002°37'0 0.0
2015-May-23 09:33N 51°25' E 002°37'0 0.0
2015-May-23 08:33N 51°25' E 002°37'0 0.0
2015-May-23 07:33N 51°25' E 002°37'0 0.2
2015-May-23 06:33N 51°25' E 002°37'0 0.0
2015-May-23 05:33N 51°25' E 002°37'0 0.0
2015-May-23 04:33N 51°25' E 002°37'0 0.0
2015-May-23 03:24N 51°25' E 002°37'0 0.0
2015-May-23 02:30N 51°25' E 002°37'0 0.1
2015-May-23 01:33N 51°25' E 002°37'0 0.1
2015-May-23 00:33N 51°25' E 002°37'0 0.0
2015-May-22 23:33N 51°25' E 002°37'0 0.0
2015-May-22 22:33N 51°25' E 002°37'0 0.1
2015-May-22 21:33N 51°25' E 002°37'0 0.1
2015-May-22 20:30N 51°25' E 002°37'0 0.0
2015-May-22 19:33N 51°25' E 002°37'0 0.0
2015-May-22 18:29N 51°25' E 002°37'1 1.5
2015-May-22 17:33N 51°23' E 002°37'1514.7
2015-May-22 16:34N 51°19' E 002°14'1212.5
2015-May-22 15:33N 51°26' E 001°58'1313.3
2015-May-22 14:33N 51°37' E 001°47'1413.6
2015-May-22 13:34N 51°50' E 001°39'1212.2
2015-May-22 12:33N 51°56' E 001°22'7 7.4
2015-May-22 11:33N 52°00' E 001°12'3 2.6
2015-May-22 10:32N 52°02' E 001°09'0 0.0
2015-May-22 09:32N 52°02' E 001°09'0 0.0
2015-May-22 08:29N 52°02' E 001°09'0 0.0
2015-May-22 07:32N 52°02' E 001°09'0 0.0
2015-May-22 06:32N 52°02' E 001°09'0 0.0
2015-May-22 05:32N 52°02' E 001°09'0 0.0
2015-May-22 04:31N 52°02' E 001°09'0 0.0
2015-May-22 03:31N 52°02' E 001°09'0 0.0
2015-May-22 02:31N 52°02' E 001°09'0 0.0
2015-May-22 01:31N 52°02' E 001°09'0 0.0
2015-May-22 00:31N 52°02' E 001°09'0 0.0
2015-May-21 23:31N 52°02' E 001°09'0 0.0
2015-May-21 22:31N 52°02' E 001°09'0 0.0
2015-May-21 21:31N 52°02' E 001°09'0 0.0
2015-May-21 20:31N 52°02' E 001°09'0 0.0
2015-May-21 19:31N 52°02' E 001°09'0 0.0
2015-May-21 18:31N 52°02' E 001°09'0 0.0
2015-May-21 17:31N 52°02' E 001°09'0 0.0
2015-May-21 16:31N 52°02' E 001°09'0 0.0
2015-May-21 15:31N 52°02' E 001°09'0 0.0
2015-May-21 14:31N 52°02' E 001°09'0 0.0
2015-May-21 13:28N 52°02' E 001°09'0 0.0
2015-May-21 12:31N 52°02' E 001°09'0 0.0
2015-May-21 11:31N 52°02' E 001°09'0 0.0
2015-May-21 10:31N 52°02' E 001°09'0 0.0
2015-May-21 09:25N 52°02' E 001°09'0 0.0
2015-May-21 08:31N 52°02' E 001°09'0 0.0
2015-May-21 07:31N 52°02' E 001°09'0 0.0
2015-May-21 06:31N 52°02' E 001°09'0 0.0
2015-May-21 05:25N 52°02' E 001°09'0 0.0
2015-May-21 04:31N 52°02' E 001°09'0 0.0
2015-May-21 03:31N 52°02' E 001°09'0 0.0
2015-May-21 02:33N 52°02' E 001°09'0 0.0
2015-May-21 01:33N 52°02' E 001°09'0 0.0
2015-May-21 00:30N 52°02' E 001°09'0 0.0
2015-May-20 23:33N 52°02' E 001°09'0 0.0
2015-May-20 22:33N 52°02' E 001°09'0 0.0
2015-May-20 21:27N 52°02' E 001°09'0 0.0
2015-May-20 20:30N 52°02' E 001°09'0 0.0
2015-May-20 19:33N 52°02' E 001°09'0 0.0
2015-May-20 18:33N 52°02' E 001°09'0 0.0
2015-May-20 17:33N 52°02' E 001°09'0 0.0
2015-May-20 16:33N 52°02' E 001°09'0 0.0
2015-May-20 15:33N 52°02' E 001°09'0 0.0
2015-May-20 14:33N 52°02' E 001°09'0 0.0
2015-May-20 13:33N 52°02' E 001°09'0 0.0
2015-May-20 12:33N 52°02' E 001°09'0 0.0
2015-May-20 11:33N 52°02' E 001°09'0 0.0
2015-May-20 10:30N 52°02' E 001°09'0 0.0
2015-May-20 09:33N 52°02' E 001°09'0 0.0
2015-May-20 08:33N 52°02' E 001°09'0 0.0
2015-May-20 07:33N 52°02' E 001°09'0 0.0
2015-May-20 06:33N 52°02' E 001°09'0 0.0
2015-May-20 05:33N 52°02' E 001°09'0 0.0
2015-May-20 04:33N 52°02' E 001°09'0 0.0
2015-May-20 03:33N 52°02' E 001°09'0 0.0
2015-May-20 02:32N 52°02' E 001°09'0 0.0
2015-May-20 01:32N 52°02' E 001°09'0 0.0
2015-May-20 00:32N 52°02' E 001°09'0 0.0
2015-May-19 23:32N 52°02' E 001°09'0 0.0
2015-May-19 22:32N 52°02' E 001°09'0 0.0
2015-May-19 21:32N 52°02' E 001°09'0 0.0
2015-May-19 20:29N 52°02' E 001°09'0 0.0
2015-May-19 19:32N 52°02' E 001°09'0 0.0
2015-May-19 18:32N 52°02' E 001°09'0 0.0
2015-May-19 17:32N 52°02' E 001°09'0 0.0
2015-May-19 16:32N 52°02' E 001°09'0 0.0
2015-May-19 15:32N 52°02' E 001°09'0 0.0
2015-May-19 14:32N 52°02' E 001°09'0 0.0
2015-May-19 13:32N 52°02' E 001°09'0 0.0
2015-May-19 12:32N 52°02' E 001°09'0 0.0
2015-May-19 11:32N 52°02' E 001°09'0 0.0
2015-May-19 10:29N 52°02' E 001°09'0 0.0
2015-May-19 09:32N 52°02' E 001°09'0 0.0
2015-May-19 08:32N 52°02' E 001°09'0 0.0
2015-May-19 07:29N 52°02' E 001°09'0 0.0
2015-May-19 06:32N 52°02' E 001°09'0 0.0
2015-May-19 05:32N 52°02' E 001°09'0 0.0
2015-May-19 04:32N 52°02' E 001°09'0 0.0
2015-May-19 03:32N 52°02' E 001°09'0 0.0
2015-May-19 02:29N 52°02' E 001°09'0 0.0
2015-May-19 01:31N 52°02' E 001°09'0 0.0
2015-May-19 00:28N 52°02' E 001°09'0 0.0
2015-May-18 23:28N 52°02' E 001°09'0 0.0
2015-May-18 22:28N 52°02' E 001°09'0 0.0
2015-May-18 21:31N 52°02' E 001°09'0 0.0
2015-May-18 20:31N 52°02' E 001°09'0 0.0
2015-May-18 19:31N 52°02' E 001°09'0 0.0
2015-May-18 18:31N 52°02' E 001°09'0 0.0
2015-May-18 17:31N 52°02' E 001°09'  
Track history (hours):
 
Tides and Currents Weather Stations Pressure Air Temp Water Temp Dewpoint Dewpoint Depression Visibility Wind Speed Wind Dir Waves Ship Positions

Edisongracht

Last reported at 2015-May-28 16:31 UTC. Time now 2015-May-30 14:35 UTC.
Position N 50°19' W 001°15'.

Length 136 m; beam 19 m; draft 9 m.

Type: Cargo ship. MMSI: 244262000.

Date/timePositionNaut miles runAvg speedWind from/ knotsBaromVisibWave heightAir tempDewpointWater temp
2015-May-28 16:31N 50°19' W 001°15'2511.6
2015-May-28 14:24N 50°25' W 000°38'2613.2
2015-May-28 12:28N 50°32' E 000°01'1313.9
2015-May-28 11:33N 50°35' E 000°21'1413.8
2015-May-28 10:34N 50°41' E 000°40'1313.1
2015-May-28 09:34N 50°48' E 000°57'1212.1
2015-May-28 08:33N 50°56' E 001°12'1211.6
2015-May-28 07:34N 51°04' E 001°26'1111.3
2015-May-28 06:34N 51°11' E 001°40'1212.4
2015-May-28 05:33N 51°20' E 001°53'1110.8
2015-May-28 04:33N 51°22' E 002°10'1512.8
2015-May-28 03:25N 51°23' E 002°34'1011.6
2015-May-28 02:34N 51°22' E 002°49'1312.6
2015-May-28 01:33N 51°24' E 003°09'1414.2
2015-May-28 00:33N 51°25' E 003°32'1111.3
2015-May-27 23:34N 51°21' E 003°49'10 9.5
2015-May-27 22:33N 51°22' E 004°04'10 9.8
2015-May-27 21:33N 51°18' E 004°17'2 2.0
2015-May-27 20:31N 51°16' E 004°17'2 1.4
2015-May-27 19:20N 51°15' E 004°14'0 0.0
2015-May-27 18:32N 51°15' E 004°14'0 0.0
2015-May-27 17:23N 51°15' E 004°14'0 0.0
2015-May-27 16:32N 51°15' E 004°14'0 0.0
2015-May-27 15:32N 51°15' E 004°14'0 0.0
2015-May-27 14:32N 51°15' E 004°14'0 0.0
2015-May-27 13:26N 51°15' E 004°14'0 0.0
2015-May-27 12:32N 51°15' E 004°14'0 0.0
2015-May-27 11:32N 51°15' E 004°14'0 0.0
2015-May-27 10:32N 51°15' E 004°14'0 0.0
2015-May-27 09:32N 51°15' E 004°14'0 0.0
2015-May-27 08:29N 51°15' E 004°14'0 0.0
2015-May-27 07:32N 51°15' E 004°14'0 0.0
2015-May-27 06:32N 51°15' E 004°14'0 0.0
2015-May-27 05:32N 51°15' E 004°14'0 0.0
2015-May-27 04:32N 51°15' E 004°14'0 0.0
2015-May-27 03:32N 51°15' E 004°14'0 0.0
2015-May-27 02:32N 51°15' E 004°14'0 0.0
2015-May-27 01:32N 51°15' E 004°14'0 0.0
2015-May-27 00:32N 51°15' E 004°14'0 0.0
2015-May-26 23:26N 51°15' E 004°14'0 0.0
2015-May-26 22:32N 51°15' E 004°14'0 0.0
2015-May-26 21:29N 51°15' E 004°14'1 1.3
2015-May-26 20:33N 51°16' E 004°16'1 0.6
2015-May-26 19:33N 51°16' E 004°17'2 2.2
2015-May-26 18:33N 51°17' E 004°20'1 1.3
2015-May-26 17:33N 51°17' E 004°22'0 0.4
2015-May-26 16:31N 51°17' E 004°23'0 0.0
2015-May-26 15:33N 51°17' E 004°23'0 0.0
2015-May-26 14:33N 51°17' E 004°23'0 0.0
2015-May-26 13:30N 51°17' E 004°23'0 0.0
2015-May-26 12:33N 51°17' E 004°23'0 0.1
2015-May-26 11:33N 51°17' E 004°23'0 0.1
2015-May-26 10:33N 51°17' E 004°23'0 0.0
2015-May-26 09:33N 51°17' E 004°23'0 0.0
2015-May-26 08:30N 51°17' E 004°23'0 0.0
2015-May-26 07:33N 51°17' E 004°23'0 0.0
2015-May-26 06:33N 51°17' E 004°23'0 0.0
2015-May-26 05:33N 51°17' E 004°23'0 0.0
2015-May-26 04:33N 51°17' E 004°23'0 0.0
2015-May-26 03:33N 51°17' E 004°23'0 0.0
2015-May-26 02:33N 51°17' E 004°23'0 0.0
2015-May-26 01:33N 51°17' E 004°23'0 0.0
2015-May-26 00:33N 51°17' E 004°23'0 0.0
2015-May-25 23:33N 51°17' E 004°23'0 0.0
2015-May-25 22:33N 51°17' E 004°23'0 0.0
2015-May-25 21:33N 51°17' E 004°23'0 0.0
2015-May-25 20:33N 51°17' E 004°23'0 0.0
2015-May-25 19:33N 51°17' E 004°23'0 0.0
2015-May-25 18:33N 51°17' E 004°23'0 0.0
2015-May-25 17:33N 51°17' E 004°23'0 0.0
2015-May-25 16:33N 51°17' E 004°23'0 0.0
2015-May-25 15:33N 51°17' E 004°23'0 0.0
2015-May-25 14:32N 51°17' E 004°23'0 0.0
2015-May-25 13:32N 51°17' E 004°23'0 0.0
2015-May-25 12:32N 51°17' E 004°23'0 0.0
2015-May-25 11:32N 51°17' E 004°23'0 0.0
2015-May-25 10:32N 51°17' E 004°23'0 0.0
2015-May-25 09:32N 51°17' E 004°23'0 0.0
2015-May-25 08:32N 51°17' E 004°23'0 0.0
2015-May-25 07:32N 51°17' E 004°23'0 0.0
2015-May-25 06:32N 51°17' E 004°23'0 0.0
2015-May-25 05:32N 51°17' E 004°23'0 0.0
2015-May-25 04:32N 51°17' E 004°23'0 0.0
2015-May-25 03:32N 51°17' E 004°23'0 0.0
2015-May-25 02:32N 51°17' E 004°23'0 0.0
2015-May-25 01:32N 51°17' E 004°23'0 0.0
2015-May-25 00:32N 51°17' E 004°23'0 0.0
2015-May-24 23:32N 51°17' E 004°23'0 0.0
2015-May-24 22:32N 51°17' E 004°23'0 0.0
2015-May-24 21:32N 51°17' E 004°23'0 0.0
2015-May-24 20:32N 51°17' E 004°23'0 0.0
2015-May-24 19:32N 51°17' E 004°23'0 0.0
2015-May-24 18:32N 51°17' E 004°23'0 0.0
2015-May-24 17:32N 51°17' E 004°23'0 0.0
2015-May-24 16:32N 51°17' E 004°23'0 0.0
2015-May-24 15:32N 51°17' E 004°23'0 0.0
2015-May-24 14:31N 51°17' E 004°23'0 0.0
2015-May-24 13:31N 51°17' E 004°23'0 0.0
2015-May-24 12:31N 51°17' E 004°23'0 0.0
2015-May-24 11:31N 51°17' E 004°23'0 0.0
2015-May-24 10:31N 51°17' E 004°23'0 0.0
2015-May-24 09:31N 51°17' E 004°23'0 0.0
2015-May-24 08:31N 51°17' E 004°23'0 0.0
2015-May-24 07:31N 51°17' E 004°23'0 0.0
2015-May-24 06:31N 51°17' E 004°23'0 0.0
2015-May-24 05:31N 51°17' E 004°23'0 0.0
2015-May-24 04:31N 51°17' E 004°23'0 0.0
2015-May-24 03:31N 51°17' E 004°23'0 0.0
2015-May-24 02:31N 51°17' E 004°23'0 0.0
2015-May-24 01:31N 51°17' E 004°23'0 0.0
2015-May-24 00:31N 51°17' E 004°23'0 0.0
2015-May-23 23:31N 51°17' E 004°23'0 0.0
2015-May-23 22:31N 51°17' E 004°23'0 0.0
2015-May-23 21:31N 51°17' E 004°23'0 0.0
2015-May-23 20:31N 51°17' E 004°23'0 0.0
2015-May-23 19:31N 51°17' E 004°23'4 4.4
2015-May-23 18:33N 51°20' E 004°18'1 0.9
2015-May-23 17:34N 51°21' E 004°17'4 4.0
2015-May-23 16:34N 51°23' E 004°13'8 7.6
2015-May-23 15:34N 51°26' E 004°01'1111.0
2015-May-23 14:33N 51°22' E 003°44'1211.5
2015-May-23 13:33N 51°25' E 003°27'1313.2
2015-May-23 12:33N 51°24' E 003°05'1211.5
2015-May-23 11:33N 51°22' E 002°47'7 7.0
2015-May-23 10:33N 51°25' E 002°37'0 0.0
2015-May-23 09:33N 51°25' E 002°37'0 0.0
2015-May-23 08:33N 51°25' E 002°37'0 0.0
2015-May-23 07:33N 51°25' E 002°37'0 0.2
2015-May-23 06:33N 51°25' E 002°37'0 0.0
2015-May-23 05:33N 51°25' E 002°37'0 0.0
2015-May-23 04:33N 51°25' E 002°37'0 0.0
2015-May-23 03:24N 51°25' E 002°37'0 0.0
2015-May-23 02:30N 51°25' E 002°37'0 0.1
2015-May-23 01:33N 51°25' E 002°37'0 0.1
2015-May-23 00:33N 51°25' E 002°37'0 0.0
2015-May-22 23:33N 51°25' E 002°37'0 0.0
2015-May-22 22:33N 51°25' E 002°37'0 0.1
2015-May-22 21:33N 51°25' E 002°37'0 0.1
2015-May-22 20:30N 51°25' E 002°37'0 0.0
2015-May-22 19:33N 51°25' E 002°37'0 0.0
2015-May-22 18:29N 51°25' E 002°37'1 1.5
2015-May-22 17:33N 51°23' E 002°37'1514.7
2015-May-22 16:34N 51°19' E 002°14'1212.5
2015-May-22 15:33N 51°26' E 001°58'1313.3
2015-May-22 14:33N 51°37' E 001°47'1413.6
2015-May-22 13:34N 51°50' E 001°39'1212.2
2015-May-22 12:33N 51°56' E 001°22'7 7.4
2015-May-22 11:33N 52°00' E 001°12'3 2.6
2015-May-22 10:32N 52°02' E 001°09'0 0.0
2015-May-22 09:32N 52°02' E 001°09'0 0.0
2015-May-22 08:29N 52°02' E 001°09'0 0.0
2015-May-22 07:32N 52°02' E 001°09'0 0.0
2015-May-22 06:32N 52°02' E 001°09'0 0.0
2015-May-22 05:32N 52°02' E 001°09'0 0.0
2015-May-22 04:31N 52°02' E 001°09'0 0.0
2015-May-22 03:31N 52°02' E 001°09'0 0.0
2015-May-22 02:31N 52°02' E 001°09'0 0.0
2015-May-22 01:31N 52°02' E 001°09'0 0.0
2015-May-22 00:31N 52°02' E 001°09'0 0.0
2015-May-21 23:31N 52°02' E 001°09'0 0.0
2015-May-21 22:31N 52°02' E 001°09'0 0.0
2015-May-21 21:31N 52°02' E 001°09'0 0.0
2015-May-21 20:31N 52°02' E 001°09'0 0.0
2015-May-21 19:31N 52°02' E 001°09'0 0.0
2015-May-21 18:31N 52°02' E 001°09'0 0.0
2015-May-21 17:31N 52°02' E 001°09'0 0.0
2015-May-21 16:31N 52°02' E 001°09'0 0.0
2015-May-21 15:31N 52°02' E 001°09'0 0.0
2015-May-21 14:31N 52°02' E 001°09'0 0.0
2015-May-21 13:28N 52°02' E 001°09'0 0.0
2015-May-21 12:31N 52°02' E 001°09'0 0.0
2015-May-21 11:31N 52°02' E 001°09'0 0.0
2015-May-21 10:31N 52°02' E 001°09'0 0.0
2015-May-21 09:25N 52°02' E 001°09'0 0.0
2015-May-21 08:31N 52°02' E 001°09'0 0.0
2015-May-21 07:31N 52°02' E 001°09'0 0.0
2015-May-21 06:31N 52°02' E 001°09'0 0.0
2015-May-21 05:25N 52°02' E 001°09'0 0.0
2015-May-21 04:31N 52°02' E 001°09'0 0.0
2015-May-21 03:31N 52°02' E 001°09'0 0.0
2015-May-21 02:33N 52°02' E 001°09'0 0.0
2015-May-21 01:33N 52°02' E 001°09'0 0.0
2015-May-21 00:30N 52°02' E 001°09'0 0.0
2015-May-20 23:33N 52°02' E 001°09'0 0.0
2015-May-20 22:33N 52°02' E 001°09'0 0.0
2015-May-20 21:27N 52°02' E 001°09'0 0.0
2015-May-20 20:30N 52°02' E 001°09'0 0.0
2015-May-20 19:33N 52°02' E 001°09'0 0.0
2015-May-20 18:33N 52°02' E 001°09'0 0.0
2015-May-20 17:33N 52°02' E 001°09'0 0.0
2015-May-20 16:33N 52°02' E 001°09'0 0.0
2015-May-20 15:33N 52°02' E 001°09'0 0.0
2015-May-20 14:33N 52°02' E 001°09'0 0.0
2015-May-20 13:33N 52°02' E 001°09'0 0.0
2015-May-20 12:33N 52°02' E 001°09'0 0.0
2015-May-20 11:33N 52°02' E 001°09'0 0.0
2015-May-20 10:30N 52°02' E 001°09'0 0.0
2015-May-20 09:33N 52°02' E 001°09'0 0.0
2015-May-20 08:33N 52°02' E 001°09'0 0.0
2015-May-20 07:33N 52°02' E 001°09'0 0.0
2015-May-20 06:33N 52°02' E 001°09'0 0.0
2015-May-20 05:33N 52°02' E 001°09'0 0.0
2015-May-20 04:33N 52°02' E 001°09'0 0.0
2015-May-20 03:33N 52°02' E 001°09'0 0.0
2015-May-20 02:32N 52°02' E 001°09'0 0.0
2015-May-20 01:32N 52°02' E 001°09'0 0.0
2015-May-20 00:32N 52°02' E 001°09'0 0.0
2015-May-19 23:32N 52°02' E 001°09'0 0.0
2015-May-19 22:32N 52°02' E 001°09'0 0.0
2015-May-19 21:32N 52°02' E 001°09'0 0.0
2015-May-19 20:29N 52°02' E 001°09'0 0.0
2015-May-19 19:32N 52°02' E 001°09'0 0.0
2015-May-19 18:32N 52°02' E 001°09'0 0.0
2015-May-19 17:32N 52°02' E 001°09'0 0.0
2015-May-19 16:32N 52°02' E 001°09'0 0.0
2015-May-19 15:32N 52°02' E 001°09'0 0.0
2015-May-19 14:32N 52°02' E 001°09'0 0.0
2015-May-19 13:32N 52°02' E 001°09'0 0.0
2015-May-19 12:32N 52°02' E 001°09'0 0.0
2015-May-19 11:32N 52°02' E 001°09'0 0.0
2015-May-19 10:29N 52°02' E 001°09'0 0.0
2015-May-19 09:32N 52°02' E 001°09'0 0.0
2015-May-19 08:32N 52°02' E 001°09'0 0.0
2015-May-19 07:29N 52°02' E 001°09'0 0.0
2015-May-19 06:32N 52°02' E 001°09'0 0.0
2015-May-19 05:32N 52°02' E 001°09'0 0.0
2015-May-19 04:32N 52°02' E 001°09'0 0.0
2015-May-19 03:32N 52°02' E 001°09'0 0.0
2015-May-19 02:29N 52°02' E 001°09'0 0.0
2015-May-19 01:31N 52°02' E 001°09'0 0.0
2015-May-19 00:28N 52°02' E 001°09'0 0.0
2015-May-18 23:28N 52°02' E 001°09'0 0.0
2015-May-18 22:28N 52°02' E 001°09'0 0.0
2015-May-18 21:31N 52°02' E 001°09'0 0.0
2015-May-18 20:31N 52°02' E 001°09'0 0.0
2015-May-18 19:31N 52°02' E 001°09'0 0.0
2015-May-18 18:31N 52°02' E 001°09'0 0.0
2015-May-18 17:31N 52°02' E 001°09'  

Dump ship's entire track history